createdAt,value
2018-12-22T00:00:47.755Z,4.27
2018-12-22T00:03:15.629Z,3.83
2018-12-22T00:05:43.823Z,3.33
2018-12-22T00:08:12.169Z,2.60
2018-12-22T00:10:40.444Z,2.63
2018-12-22T00:13:08.346Z,2.70
2018-12-22T00:15:39.011Z,2.97
2018-12-22T00:18:07.327Z,2.97
2018-12-22T00:20:35.288Z,3.60
2018-12-22T00:23:03.191Z,3.50
2018-12-22T00:25:31.654Z,3.17
2018-12-22T00:27:59.983Z,3.17
2018-12-22T00:30:28.292Z,3.70
2018-12-22T00:32:56.655Z,3.90
2018-12-22T00:35:24.737Z,3.60
2018-12-22T00:37:52.812Z,3.93
2018-12-22T00:40:20.848Z,3.93
2018-12-22T00:42:48.743Z,3.83
2018-12-22T00:45:17.019Z,3.37
2018-12-22T00:47:45.477Z,3.13
2018-12-22T00:50:14.022Z,3.60
2018-12-22T00:52:42.051Z,3.93
2018-12-22T00:55:10.531Z,3.73
2018-12-22T00:57:38.602Z,4.17
2018-12-22T01:00:08.515Z,3.67
2018-12-22T01:02:37.171Z,4.30
2018-12-22T01:05:05.486Z,4.20
2018-12-22T01:07:33.547Z,3.87
2018-12-22T01:10:02.033Z,3.10
2018-12-22T01:12:30.303Z,3.20
2018-12-22T01:14:58.373Z,3.73
2018-12-22T01:17:26.854Z,3.20
2018-12-22T01:19:54.719Z,3.40
2018-12-22T01:22:22.586Z,3.63
2018-12-22T01:24:50.451Z,2.80
2018-12-22T01:27:18.725Z,2.87
2018-12-22T01:29:47.207Z,3.10
2018-12-22T01:32:15.276Z,2.80
2018-12-22T01:34:43.148Z,2.30
2018-12-22T01:37:11.704Z,2.03
2018-12-22T01:39:40.310Z,2.33
2018-12-22T01:42:08.583Z,1.97
2018-12-22T01:44:37.233Z,2.30
2018-12-22T01:47:05.144Z,2.27
2018-12-22T01:49:33.410Z,2.30
2018-12-22T01:52:01.727Z,2.70
2018-12-22T01:54:29.655Z,3.10
2018-12-22T01:56:57.727Z,3.67
2018-12-22T01:59:26.200Z,3.13
2018-12-22T02:01:54.276Z,3.27
2018-12-22T02:04:22.151Z,2.83
2018-12-22T02:06:50.619Z,2.90
2018-12-22T02:09:18.690Z,3.07
2018-12-22T02:11:46.556Z,3.17
2018-12-22T02:14:14.420Z,2.83
2018-12-22T02:16:42.293Z,3.07
2018-12-22T02:19:10.718Z,3.47
2018-12-22T02:21:38.595Z,2.30
2018-12-22T02:24:06.715Z,2.53
2018-12-22T02:26:35.203Z,3.07
2018-12-22T02:29:03.849Z,3.03
2018-12-22T02:31:31.941Z,2.97
2018-12-22T02:34:01.498Z,2.93
2018-12-22T02:36:30.082Z,2.77
2018-12-22T02:38:58.199Z,2.30
2018-12-22T02:41:27.675Z,2.30
2018-12-22T02:43:56.080Z,2.83
2018-12-22T02:46:25.072Z,2.90
2018-12-22T02:48:52.939Z,2.63
2018-12-22T02:51:21.006Z,3.73
2018-12-22T02:53:49.080Z,3.73
2018-12-22T02:56:17.751Z,4.33
2018-12-22T02:58:45.834Z,4.30
2018-12-22T03:01:13.910Z,3.97
2018-12-22T03:03:42.208Z,4.03
2018-12-22T03:06:10.261Z,3.10
2018-12-22T03:08:38.535Z,3.73
2018-12-22T03:11:06.396Z,3.37
2018-12-22T03:13:35.341Z,3.93
2018-12-22T03:16:03.413Z,3.73
2018-12-22T03:18:31.939Z,4.10
2018-12-22T03:20:59.799Z,4.30
2018-12-22T03:23:27.667Z,4.50
2018-12-22T03:25:55.736Z,5.10
2018-12-22T03:28:24.217Z,3.77
2018-12-22T03:30:52.299Z,4.10
2018-12-22T03:33:20.803Z,4.17
2018-12-22T03:35:48.837Z,4.97
2018-12-22T03:38:17.163Z,4.43
2018-12-22T03:40:45.186Z,4.07
2018-12-22T03:43:13.566Z,4.47
2018-12-22T03:45:41.636Z,4.80
2018-12-22T03:48:10.102Z,5.03
2018-12-22T03:50:37.978Z,4.63
2018-12-22T03:53:06.252Z,3.77
2018-12-22T03:55:34.121Z,2.70
2018-12-22T03:58:01.995Z,3.00
2018-12-22T04:00:30.055Z,2.80
2018-12-22T04:02:58.534Z,3.03
2018-12-22T04:05:26.429Z,2.90
2018-12-22T04:07:54.471Z,2.80
2018-12-22T04:10:22.532Z,3.40
2018-12-22T04:12:50.935Z,2.97
2018-12-22T04:15:19.065Z,3.53
2018-12-22T04:17:47.178Z,3.17
2018-12-22T04:20:15.247Z,3.83
2018-12-22T04:22:43.107Z,4.07
2018-12-22T04:25:11.169Z,3.97
2018-12-22T04:27:39.657Z,5.07
2018-12-22T04:30:08.008Z,5.47
2018-12-22T04:32:36.221Z,5.63
2018-12-22T04:35:05.008Z,5.57
2018-12-22T04:37:32.981Z,5.30
2018-12-22T04:40:01.444Z,6.03
2018-12-22T04:42:29.732Z,5.63
2018-12-22T04:44:57.789Z,6.10
2018-12-22T04:47:25.849Z,5.97
2018-12-22T04:49:54.684Z,6.80
2018-12-22T04:52:22.814Z,6.90
2018-12-22T04:54:51.313Z,6.90
2018-12-22T04:57:19.363Z,7.57
2018-12-22T04:59:47.631Z,7.70
2018-12-22T05:02:15.518Z,7.43
2018-12-22T05:04:43.378Z,7.10
2018-12-22T05:07:11.439Z,7.47
2018-12-22T05:09:39.903Z,7.47
2018-12-22T05:12:07.783Z,7.60
2018-12-22T05:14:35.876Z,8.83
2018-12-22T05:17:03.731Z,9.43
2018-12-22T05:19:31.995Z,9.33
2018-12-22T05:22:00.479Z,8.80
2018-12-22T05:24:28.984Z,9.47
2018-12-22T05:26:57.027Z,9.87
2018-12-22T05:29:25.303Z,9.53
2018-12-22T05:31:54.163Z,10.50
2018-12-22T05:34:22.340Z,11.83
2018-12-22T05:36:50.334Z,12.53
2018-12-22T05:39:18.838Z,13.73
2018-12-22T05:41:46.883Z,12.77
2018-12-22T05:44:14.983Z,13.10
2018-12-22T05:46:45.503Z,13.97
2018-12-22T05:49:13.760Z,15.00
2018-12-22T05:51:41.600Z,13.90
2018-12-22T05:54:09.488Z,14.80
2018-12-22T05:56:37.484Z,15.27
2018-12-22T05:59:05.631Z,13.80
2018-12-22T06:01:33.703Z,15.80
2018-12-22T06:04:02.264Z,15.60
2018-12-22T06:06:30.260Z,15.33
2018-12-22T06:08:58.836Z,16.30
2018-12-22T06:11:26.875Z,16.03
2018-12-22T06:13:54.871Z,16.47
2018-12-22T06:16:22.840Z,15.57
2018-12-22T06:18:51.321Z,16.33
2018-12-22T06:21:19.599Z,15.63
2018-12-22T06:23:48.611Z,16.30
2018-12-22T06:26:16.556Z,17.03
2018-12-22T06:28:44.841Z,17.33
2018-12-22T06:31:12.894Z,16.47
2018-12-22T06:33:41.178Z,16.93
2018-12-22T06:36:09.266Z,16.80
2018-12-22T06:38:37.591Z,17.90
2018-12-22T06:41:06.135Z,17.87
2018-12-22T06:43:33.999Z,19.00
2018-12-22T06:46:02.662Z,18.67
2018-12-22T06:48:33.214Z,19.00
2018-12-22T06:51:01.835Z,18.27
2018-12-22T06:53:30.261Z,18.37
2018-12-22T06:55:58.219Z,18.23
2018-12-22T06:58:26.100Z,18.70
2018-12-22T07:00:54.789Z,18.17
2018-12-22T07:03:23.280Z,18.30
2018-12-22T07:05:51.143Z,17.57
2018-12-22T07:08:19.306Z,17.40
2018-12-22T07:10:47.174Z,17.63
2018-12-22T07:13:15.656Z,16.97
2018-12-22T07:15:45.369Z,17.67
2018-12-22T07:18:13.430Z,17.00
2018-12-22T07:20:41.291Z,17.03
2018-12-22T07:23:10.374Z,17.40
2018-12-22T07:25:38.240Z,17.13
2018-12-22T07:28:11.838Z,17.17
2018-12-22T07:30:40.019Z,15.77
2018-12-22T07:33:07.832Z,18.27
2018-12-22T07:35:36.072Z,17.17
2018-12-22T07:38:04.135Z,17.80
2018-12-22T07:40:31.996Z,17.97
2018-12-22T07:43:00.266Z,18.27
2018-12-22T07:45:28.356Z,17.77
2018-12-22T07:47:56.608Z,18.03
2018-12-22T07:50:25.104Z,18.47
2018-12-22T07:52:52.955Z,18.43
2018-12-22T07:55:20.833Z,19.50
2018-12-22T07:57:59.591Z,20.23
2018-12-22T08:00:34.774Z,21.40
2018-12-22T08:02:59.987Z,19.50
2018-12-22T08:05:27.849Z,20.57
2018-12-22T08:08:00.931Z,20.17
2018-12-22T08:10:29.503Z,21.40
2018-12-22T08:12:57.569Z,22.27
2018-12-22T08:15:26.889Z,20.53
2018-12-22T08:17:54.718Z,21.50
2018-12-22T08:20:22.829Z,21.03
2018-12-22T08:22:51.000Z,20.67
2018-12-22T08:25:18.887Z,21.50
2018-12-22T08:27:46.747Z,20.37
2018-12-22T08:30:15.032Z,18.40
2018-12-22T08:32:42.875Z,21.27
2018-12-22T08:35:10.781Z,21.07
2018-12-22T08:37:46.195Z,20.80
2018-12-22T08:40:14.254Z,20.13
2018-12-22T08:42:42.272Z,19.73
2018-12-22T08:45:10.553Z,18.90
2018-12-22T08:47:38.477Z,18.67
2018-12-22T08:50:09.327Z,17.13
2018-12-22T08:52:37.765Z,18.33
2018-12-22T08:55:06.834Z,18.40
2018-12-22T08:57:34.777Z,17.07
2018-12-22T09:00:02.660Z,16.10
2018-12-22T09:02:30.499Z,16.33
2018-12-22T09:04:58.827Z,15.43
2018-12-22T09:07:30.763Z,13.87
2018-12-22T09:09:58.608Z,13.50
2018-12-22T09:12:27.081Z,13.77
2018-12-22T09:14:55.164Z,12.87
2018-12-22T09:20:03.590Z,11.07
2018-12-22T09:22:31.533Z,11.30
2018-12-22T09:24:59.389Z,11.10
2018-12-22T09:27:27.796Z,11.87
2018-12-22T09:29:55.655Z,11.57
2018-12-22T09:32:23.489Z,11.20
2018-12-22T09:34:51.433Z,11.80
2018-12-22T09:37:19.305Z,12.17
2018-12-22T09:39:47.398Z,11.27
2018-12-22T09:42:15.563Z,12.23
2018-12-22T09:44:43.380Z,11.50
2018-12-22T09:47:11.213Z,12.40
2018-12-22T09:49:39.040Z,11.57
2018-12-22T09:52:06.995Z,11.23
2018-12-22T09:54:35.165Z,12.53
2018-12-22T09:57:03.252Z,12.47
2018-12-22T09:59:31.071Z,12.27
2018-12-22T10:01:58.868Z,12.13
2018-12-22T10:04:26.936Z,12.17
2018-12-22T10:06:54.745Z,12.03
2018-12-22T10:09:23.169Z,12.27
2018-12-22T10:11:51.020Z,12.10
2018-12-22T10:14:19.063Z,12.97
2018-12-22T10:16:46.977Z,13.47
2018-12-22T10:19:14.831Z,11.47
2018-12-22T10:21:42.769Z,13.03
2018-12-22T10:24:11.040Z,12.53
2018-12-22T10:26:39.125Z,11.93
2018-12-22T10:29:07.208Z,12.47
2018-12-22T10:31:35.284Z,13.00
2018-12-22T10:34:03.395Z,13.00
2018-12-22T10:36:31.464Z,12.23
2018-12-22T10:38:59.291Z,11.80
2018-12-22T10:41:27.373Z,12.80
2018-12-22T10:43:55.418Z,12.37
2018-12-22T10:46:43.121Z,12.23
2018-12-22T10:49:11.448Z,11.97
2018-12-22T10:51:39.283Z,11.73
2018-12-22T10:54:07.087Z,12.23
2018-12-22T10:56:35.414Z,11.63
2018-12-22T10:59:03.332Z,12.27
2018-12-22T11:01:31.556Z,13.00
2018-12-22T11:03:59.656Z,13.47
2018-12-22T11:06:27.747Z,13.00
2018-12-22T11:08:55.560Z,13.57
2018-12-22T11:11:23.679Z,12.10
2018-12-22T11:13:51.816Z,13.73
2018-12-22T11:16:20.688Z,12.40
2018-12-22T11:18:48.883Z,13.37
2018-12-22T11:21:16.971Z,13.53
2018-12-22T11:23:45.123Z,14.03
2018-12-22T11:26:12.968Z,13.73
2018-12-22T11:28:41.096Z,14.30
2018-12-22T11:31:08.981Z,15.23
2018-12-22T11:33:36.983Z,18.87
2018-12-22T11:36:04.861Z,18.93
2018-12-22T11:38:32.961Z,18.13
2018-12-22T11:41:01.024Z,18.67
2018-12-22T11:43:29.371Z,18.03
2018-12-22T11:45:57.851Z,17.80
2018-12-22T11:48:25.717Z,17.80
2018-12-22T11:50:53.999Z,17.07
2018-12-22T11:53:22.108Z,17.93
2018-12-22T11:55:50.079Z,18.73
2018-12-22T11:58:18.206Z,17.13
2018-12-22T12:00:46.052Z,17.10
2018-12-22T12:03:14.126Z,16.90
2018-12-22T12:05:42.274Z,16.47
2018-12-22T12:08:10.128Z,16.70
2018-12-22T12:10:38.032Z,18.70
2018-12-22T12:13:06.369Z,17.37
2018-12-22T12:15:38.317Z,16.90
2018-12-22T12:18:12.976Z,17.23
2018-12-22T12:20:40.835Z,17.37
2018-12-22T12:23:09.111Z,18.00
2018-12-22T12:25:36.991Z,17.63
2018-12-22T12:28:04.812Z,17.30
2018-12-22T12:30:32.633Z,17.07
2018-12-22T12:33:00.800Z,16.40
2018-12-22T12:35:28.690Z,17.23
2018-12-22T12:37:56.583Z,18.30
2018-12-22T12:40:24.504Z,18.27
2018-12-22T12:42:52.915Z,18.07
2018-12-22T12:45:20.808Z,18.70
2018-12-22T12:47:48.676Z,20.57
2018-12-22T12:50:21.480Z,20.60
2018-12-22T12:52:49.387Z,20.77
2018-12-22T12:55:17.245Z,21.07
2018-12-22T12:57:45.344Z,21.40
2018-12-22T13:00:18.838Z,20.67
2018-12-22T13:02:49.667Z,20.60
2018-12-22T13:05:18.383Z,21.90
2018-12-22T13:07:46.500Z,20.80
2018-12-22T13:10:14.333Z,20.33
2018-12-22T13:12:52.239Z,19.47
2018-12-22T13:15:20.087Z,19.03
2018-12-22T13:17:48.152Z,18.93
2018-12-22T13:20:16.285Z,19.63
2018-12-22T13:22:44.143Z,19.27
2018-12-22T13:25:14.077Z,19.00
2018-12-22T13:27:42.478Z,18.00
2018-12-22T13:30:12.531Z,18.97
2018-12-22T13:32:42.379Z,19.00
2018-12-22T13:35:12.559Z,18.87
2018-12-22T13:37:40.389Z,18.33
2018-12-22T13:40:11.020Z,18.60
2018-12-22T13:42:38.886Z,20.23
2018-12-22T13:45:11.949Z,19.67
2018-12-22T13:47:40.089Z,19.63
2018-12-22T13:50:12.343Z,20.10
2018-12-22T13:52:40.371Z,20.30
2018-12-22T13:55:09.436Z,21.10
2018-12-22T13:57:40.996Z,20.27
2018-12-22T14:00:29.626Z,20.70
2018-12-22T14:02:57.670Z,19.80
2018-12-22T14:05:28.760Z,22.27
2018-12-22T14:07:57.966Z,21.97
2018-12-22T14:10:26.730Z,22.30
2018-12-22T14:12:55.531Z,22.73
2018-12-22T14:15:24.833Z,21.70
2018-12-22T14:18:12.030Z,21.83
2018-12-22T14:20:40.088Z,23.37
2018-12-22T14:23:08.568Z,22.93
2018-12-22T14:25:36.648Z,23.30
2018-12-22T14:28:04.520Z,22.67
2018-12-22T14:30:33.392Z,24.13
2018-12-22T14:33:01.290Z,24.03
2018-12-22T14:35:32.674Z,24.03
2018-12-22T14:38:00.956Z,23.53
2018-12-22T14:40:29.235Z,24.27
2018-12-22T14:42:57.120Z,26.07
2018-12-22T14:45:24.988Z,26.77
2018-12-22T14:47:52.891Z,25.93
2018-12-22T14:50:21.543Z,25.87
2018-12-22T14:52:50.049Z,27.27
2018-12-22T14:55:17.923Z,27.07
2018-12-22T14:57:50.290Z,29.77
2018-12-22T15:00:18.371Z,28.23
2018-12-22T15:02:46.330Z,29.33
2018-12-22T15:05:14.611Z,28.57
2018-12-22T15:07:45.509Z,29.40
2018-12-22T15:10:13.900Z,29.67
2018-12-22T15:12:41.860Z,30.33
2018-12-22T15:15:11.311Z,28.57
2018-12-22T15:17:42.305Z,30.20
2018-12-22T15:20:15.407Z,29.33
2018-12-22T15:22:45.749Z,31.07
2018-12-22T15:25:19.225Z,31.23
2018-12-22T15:27:48.187Z,31.63
2018-12-22T15:30:18.119Z,31.17
2018-12-22T15:32:54.515Z,31.43
2018-12-22T15:35:16.928Z,30.80
2018-12-22T15:37:45.025Z,31.83
2018-12-22T15:40:13.172Z,31.30
2018-12-22T15:42:42.087Z,29.20
2018-12-22T15:45:17.147Z,28.27
2018-12-22T15:47:46.015Z,27.23
2018-12-22T15:50:22.477Z,27.47
2018-12-22T15:52:51.097Z,28.27
2018-12-22T15:55:19.621Z,24.80
2018-12-22T15:57:50.851Z,27.43
2018-12-22T16:00:18.757Z,26.60
2018-12-22T16:02:53.074Z,26.67
2018-12-22T16:05:17.971Z,26.97
2018-12-22T16:07:46.052Z,28.17
2018-12-22T16:10:17.866Z,28.93
2018-12-22T16:12:46.175Z,27.80
2018-12-22T16:15:18.310Z,29.33
2018-12-22T16:17:46.432Z,29.37
2018-12-22T16:20:14.587Z,30.97
2018-12-22T16:22:48.065Z,29.27
2018-12-22T16:25:16.008Z,24.87
2018-12-22T16:27:44.633Z,23.97
2018-12-22T16:30:17.860Z,24.90
2018-12-22T16:32:45.894Z,25.77
2018-12-22T16:35:13.937Z,22.67
2018-12-22T16:37:42.231Z,24.87
2018-12-22T16:40:12.776Z,25.87
2018-12-22T16:42:40.906Z,27.07
2018-12-22T16:45:12.974Z,24.90
2018-12-22T16:47:40.873Z,30.17
2018-12-22T16:50:11.413Z,28.13
2018-12-22T16:52:39.474Z,25.77
2018-12-22T16:55:11.637Z,25.97
2018-12-22T16:57:41.524Z,26.27
2018-12-22T17:00:14.894Z,26.70
2018-12-22T17:02:44.757Z,27.17
2018-12-22T17:05:12.648Z,26.90
2018-12-22T17:07:41.109Z,26.80
2018-12-22T17:10:09.584Z,31.20
2018-12-22T17:12:37.898Z,28.50
2018-12-22T17:15:21.615Z,26.50
2018-12-22T17:17:44.151Z,24.70
2018-12-22T17:20:14.873Z,25.60
2018-12-22T17:22:52.986Z,24.67
2018-12-22T17:25:21.528Z,22.77
2018-12-22T17:27:50.053Z,22.73
2018-12-22T17:30:18.202Z,23.83
2018-12-22T17:32:46.112Z,22.00
2018-12-22T17:37:44.621Z,23.97
2018-12-22T17:40:12.955Z,22.97
2018-12-22T17:42:41.436Z,24.70
2018-12-22T17:45:11.175Z,23.93
2018-12-22T17:47:40.401Z,23.90
2018-12-22T17:50:10.766Z,22.00
2018-12-22T17:52:38.837Z,23.00
2018-12-22T17:55:09.488Z,21.93
2018-12-22T17:57:37.641Z,20.27
2018-12-22T18:00:10.866Z,21.83
2018-12-22T18:02:38.892Z,20.93
2018-12-22T18:05:07.807Z,26.57
2018-12-22T18:07:35.877Z,27.13
2018-12-22T18:10:06.891Z,28.10
2018-12-22T18:12:35.394Z,29.23
2018-12-22T18:15:13.731Z,32.77
2018-12-22T18:17:41.776Z,33.40
2018-12-22T18:20:10.439Z,36.83
2018-12-22T18:22:38.966Z,38.73
2018-12-22T18:25:17.824Z,36.27
2018-12-22T18:27:47.767Z,35.30
2018-12-22T18:30:16.522Z,36.00
2018-12-22T18:32:45.497Z,36.87
2018-12-22T18:35:13.681Z,37.10
2018-12-22T18:37:41.535Z,38.27
2018-12-22T18:40:20.585Z,38.17
2018-12-22T18:42:48.582Z,39.33
2018-12-22T18:45:16.672Z,36.83
2018-12-22T18:47:44.853Z,35.87
2018-12-22T18:50:27.939Z,32.00
2018-12-22T18:55:19.331Z,31.60
2018-12-22T18:57:49.676Z,29.67
2018-12-22T19:00:20.824Z,31.03
2018-12-22T19:02:49.178Z,29.43
2018-12-22T19:05:18.422Z,30.07
2018-12-22T19:07:46.324Z,32.33
2018-12-22T19:10:22.873Z,32.67
2018-12-22T19:12:50.842Z,32.73
2018-12-22T19:15:19.976Z,34.73
2018-12-22T19:17:48.471Z,32.63
2018-12-22T19:20:21.366Z,32.53
2018-12-22T19:22:49.291Z,31.33
2018-12-22T19:25:17.560Z,31.47
2018-12-22T19:27:45.764Z,30.17
2018-12-22T19:30:13.807Z,29.90
2018-12-22T19:32:43.488Z,26.83
2018-12-22T19:35:12.376Z,26.37
2018-12-22T19:37:41.789Z,24.37
2018-12-22T19:40:09.815Z,23.37
2018-12-22T19:42:37.900Z,23.23
2018-12-22T19:45:07.185Z,21.80
2018-12-22T19:47:35.262Z,21.97
2018-12-22T19:50:05.200Z,19.97
2018-12-22T19:52:33.037Z,21.43
2018-12-22T19:55:01.138Z,21.83
2018-12-22T19:57:29.174Z,21.30
2018-12-22T19:59:57.481Z,19.37
2018-12-22T20:02:25.369Z,18.13
2018-12-22T20:04:53.313Z,17.10
2018-12-22T20:07:21.283Z,16.53
2018-12-22T20:09:49.467Z,15.90
2018-12-22T20:12:18.043Z,16.83
2018-12-22T20:14:46.311Z,16.87
2018-12-22T20:17:14.438Z,16.07
2018-12-22T20:19:42.603Z,16.13
2018-12-22T20:22:15.234Z,16.87
2018-12-22T20:24:43.143Z,16.43
2018-12-22T20:27:11.328Z,16.20
2018-12-22T20:29:39.459Z,15.40
2018-12-22T20:32:07.665Z,15.40
2018-12-22T20:34:36.236Z,14.93
2018-12-22T20:37:04.377Z,15.73
2018-12-22T20:39:32.471Z,14.47
2018-12-22T20:42:00.926Z,14.67
2018-12-22T20:44:28.964Z,14.37
2018-12-22T20:46:56.941Z,14.37
2018-12-22T20:49:25.239Z,14.27
2018-12-22T20:51:53.188Z,14.07
2018-12-22T20:54:21.245Z,14.27
2018-12-22T20:56:49.388Z,15.20
2018-12-22T20:59:17.505Z,15.03
2018-12-22T21:01:45.592Z,14.43
2018-12-22T21:04:19.842Z,14.07
2018-12-22T21:06:43.787Z,14.40
2018-12-22T21:09:11.935Z,14.63
2018-12-22T21:11:39.812Z,15.83
2018-12-22T21:14:07.745Z,15.67
2018-12-22T21:16:36.080Z,16.47
2018-12-22T21:19:04.017Z,16.20
2018-12-22T21:21:32.324Z,15.90
2018-12-22T21:24:00.686Z,15.87
2018-12-22T21:26:28.832Z,17.07
2018-12-22T21:28:56.828Z,17.70
2018-12-22T21:31:24.801Z,18.07
2018-12-22T21:33:52.869Z,17.47
2018-12-22T21:36:20.765Z,18.07
2018-12-22T21:38:48.945Z,17.90
2018-12-22T21:41:17.000Z,18.03
2018-12-22T21:43:45.250Z,18.13
2018-12-22T21:46:13.115Z,18.20
2018-12-22T21:48:41.025Z,18.70
2018-12-22T21:51:09.360Z,17.50
2018-12-22T21:53:37.192Z,18.43
2018-12-22T21:56:05.296Z,18.37
2018-12-22T21:58:33.343Z,17.30
2018-12-22T22:01:01.850Z,18.83
2018-12-22T22:03:29.889Z,18.43
2018-12-22T22:05:58.400Z,17.87
2018-12-22T22:08:26.402Z,18.20
2018-12-22T22:10:54.334Z,17.50
2018-12-22T22:13:22.216Z,20.00
2018-12-22T22:15:50.114Z,19.23
2018-12-22T22:18:18.395Z,19.93
2018-12-22T22:20:46.822Z,20.23
2018-12-22T22:23:31.260Z,19.13
2018-12-22T22:25:59.611Z,20.00
2018-12-22T22:28:27.663Z,20.63
2018-12-22T22:31:01.087Z,20.07
2018-12-22T22:33:56.222Z,21.00
2018-12-22T22:36:24.036Z,21.13
2018-12-22T22:38:51.999Z,21.10
2018-12-22T22:41:20.103Z,20.47
2018-12-22T22:43:47.994Z,21.67
2018-12-22T22:46:15.861Z,20.93
2018-12-22T22:48:43.727Z,21.40
2018-12-22T22:51:12.002Z,22.10
2018-12-22T22:53:40.276Z,22.60
2018-12-22T22:56:08.104Z,21.30
2018-12-22T22:58:36.341Z,20.87
2018-12-22T23:01:04.694Z,21.17
2018-12-22T23:03:32.516Z,22.03
2018-12-22T23:06:00.504Z,23.00
2018-12-22T23:08:28.634Z,22.63
2018-12-22T23:10:56.797Z,23.27
2018-12-22T23:13:24.776Z,23.97
2018-12-22T23:15:52.912Z,22.03
2018-12-22T23:18:21.317Z,24.47
2018-12-22T23:20:49.327Z,22.50
2018-12-22T23:23:17.544Z,23.43
2018-12-22T23:25:45.502Z,23.50
2018-12-22T23:28:13.879Z,23.47
2018-12-22T23:30:42.334Z,23.60
2018-12-22T23:33:11.063Z,24.60
2018-12-22T23:35:39.885Z,24.03
2018-12-22T23:38:08.780Z,24.47
2018-12-22T23:40:36.690Z,23.47
2018-12-22T23:43:04.763Z,23.50
2018-12-22T23:45:34.187Z,21.90
2018-12-22T23:48:02.233Z,23.07
2018-12-22T23:50:30.135Z,22.90
2018-12-22T23:52:58.304Z,23.30
2018-12-22T23:55:26.330Z,21.80
2018-12-22T23:57:54.209Z,22.23
